sensor_id;sensor_type;location;lat;lon;timestamp;P1;durP1;ratioP1;P2;durP2;ratioP2
70829;SDS011;58451;51.550;7.208;2022-11-14T00:01:43;18.80;;;8.80;;
70829;SDS011;58451;51.550;7.208;2022-11-14T00:03:33;24.50;;;10.60;;
70829;SDS011;58451;51.550;7.208;2022-11-14T00:05:23;20.40;;;9.70;;
70829;SDS011;58451;51.550;7.208;2022-11-14T00:07:14;23.40;;;10.90;;
70829;SDS011;58451;51.550;7.208;2022-11-14T00:09:06;25.80;;;11.70;;
70829;SDS011;58451;51.550;7.208;2022-11-14T00:10:57;23.60;;;10.70;;
70829;SDS011;58451;51.550;7.208;2022-11-14T00:12:50;23.80;;;10.80;;
70829;SDS011;58451;51.550;7.208;2022-11-14T00:14:45;23.00;;;9.80;;
70829;SDS011;58451;51.550;7.208;2022-11-14T00:16:35;22.30;;;10.40;;
70829;SDS011;58451;51.550;7.208;2022-11-14T00:18:26;24.80;;;10.40;;
70829;SDS011;58451;51.550;7.208;2022-11-14T00:20:17;22.70;;;10.40;;
70829;SDS011;58451;51.550;7.208;2022-11-14T00:22:07;21.70;;;10.40;;
70829;SDS011;58451;51.550;7.208;2022-11-14T00:23:57;21.20;;;9.60;;
70829;SDS011;58451;51.550;7.208;2022-11-14T00:25:47;27.80;;;11.50;;
70829;SDS011;58451;51.550;7.208;2022-11-14T00:27:38;25.60;;;10.80;;
70829;SDS011;58451;51.550;7.208;2022-11-14T00:29:31;29.40;;;11.70;;
70829;SDS011;58451;51.550;7.208;2022-11-14T00:31:22;22.40;;;9.60;;
70829;SDS011;58451;51.550;7.208;2022-11-14T00:33:13;28.20;;;12.00;;
70829;SDS011;58451;51.550;7.208;2022-11-14T00:35:09;27.10;;;12.30;;
70829;SDS011;58451;51.550;7.208;2022-11-14T00:37:00;28.30;;;10.10;;
70829;SDS011;58451;51.550;7.208;2022-11-14T00:38:52;27.50;;;12.20;;
70829;SDS011;58451;51.550;7.208;2022-11-14T00:40:45;25.20;;;11.10;;
70829;SDS011;58451;51.550;7.208;2022-11-14T00:42:36;28.60;;;11.50;;
70829;SDS011;58451;51.550;7.208;2022-11-14T00:44:26;30.00;;;12.60;;
70829;SDS011;58451;51.550;7.208;2022-11-14T00:46:16;22.00;;;9.70;;
70829;SDS011;58451;51.550;7.208;2022-11-14T00:48:07;26.20;;;11.90;;
70829;SDS011;58451;51.550;7.208;2022-11-14T00:49:57;26.20;;;11.10;;
70829;SDS011;58451;51.550;7.208;2022-11-14T00:51:48;27.00;;;11.10;;
70829;SDS011;58451;51.550;7.208;2022-11-14T00:53:38;25.70;;;11.20;;
70829;SDS011;58451;51.550;7.208;2022-11-14T00:55:29;28.50;;;11.40;;
70829;SDS011;58451;51.550;7.208;2022-11-14T00:57:19;29.00;;;11.80;;
70829;SDS011;58451;51.550;7.208;2022-11-14T00:59:11;28.70;;;12.60;;
70829;SDS011;58451;51.550;7.208;2022-11-14T01:01:01;27.20;;;11.30;;
70829;SDS011;58451;51.550;7.208;2022-11-14T01:02:52;28.30;;;11.10;;
70829;SDS011;58451;51.550;7.208;2022-11-14T01:04:45;25.20;;;10.20;;
70829;SDS011;58451;51.550;7.208;2022-11-14T01:06:35;26.50;;;11.20;;
70829;SDS011;58451;51.550;7.208;2022-11-14T01:08:26;27.50;;;11.00;;
70829;SDS011;58451;51.550;7.208;2022-11-14T01:10:16;24.70;;;11.00;;
70829;SDS011;58451;51.550;7.208;2022-11-14T01:12:07;26.20;;;11.60;;
70829;SDS011;58451;51.550;7.208;2022-11-14T01:13:58;26.30;;;11.30;;
70829;SDS011;58451;51.550;7.208;2022-11-14T01:15:50;26.70;;;11.30;;
70829;SDS011;58451;51.550;7.208;2022-11-14T01:17:41;24.70;;;11.40;;
70829;SDS011;58451;51.550;7.208;2022-11-14T01:19:31;28.50;;;12.20;;
70829;SDS011;58451;51.550;7.208;2022-11-14T01:21:22;27.20;;;11.90;;
70829;SDS011;58451;51.550;7.208;2022-11-14T01:23:14;30.00;;;12.60;;
70829;SDS011;58451;51.550;7.208;2022-11-14T01:25:06;28.40;;;12.10;;
70829;SDS011;58451;51.550;7.208;2022-11-14T01:26:57;29.20;;;12.80;;
70829;SDS011;58451;51.550;7.208;2022-11-14T01:28:47;27.30;;;12.20;;
70829;SDS011;58451;51.550;7.208;2022-11-14T01:30:38;31.30;;;12.70;;
70829;SDS011;58451;51.550;7.208;2022-11-14T01:32:30;29.10;;;12.20;;
70829;SDS011;58451;51.550;7.208;2022-11-14T01:34:24;29.00;;;12.10;;
70829;SDS011;58451;51.550;7.208;2022-11-14T01:36:18;27.20;;;11.50;;
70829;SDS011;58451;51.550;7.208;2022-11-14T01:38:12;27.70;;;11.10;;
70829;SDS011;58451;51.550;7.208;2022-11-14T01:40:05;28.90;;;12.00;;
70829;SDS011;58451;51.550;7.208;2022-11-14T01:41:56;27.60;;;11.70;;
70829;SDS011;58451;51.550;7.208;2022-11-14T01:43:47;31.70;;;12.80;;
70829;SDS011;58451;51.550;7.208;2022-11-14T01:46:05;30.70;;;12.30;;
70829;SDS011;58451;51.550;7.208;2022-11-14T01:47:56;28.70;;;12.00;;
70829;SDS011;58451;51.550;7.208;2022-11-14T01:49:49;29.50;;;12.40;;
70829;SDS011;58451;51.550;7.208;2022-11-14T01:52:16;30.80;;;12.60;;
70829;SDS011;58451;51.550;7.208;2022-11-14T01:54:14;34.50;;;13.80;;
70829;SDS011;58451;51.550;7.208;2022-11-14T01:56:09;32.10;;;13.20;;
70829;SDS011;58451;51.550;7.208;2022-11-14T01:58:03;28.50;;;11.60;;
70829;SDS011;58451;51.550;7.208;2022-11-14T01:59:54;28.90;;;11.60;;
70829;SDS011;58451;51.550;7.208;2022-11-14T02:01:50;27.90;;;12.10;;
70829;SDS011;58451;51.550;7.208;2022-11-14T02:03:45;27.70;;;11.20;;
70829;SDS011;58451;51.550;7.208;2022-11-14T02:05:39;29.90;;;12.00;;
70829;SDS011;58451;51.550;7.208;2022-11-14T02:07:34;30.40;;;12.40;;
70829;SDS011;58451;51.550;7.208;2022-11-14T02:09:30;29.30;;;12.00;;
70829;SDS011;58451;51.550;7.208;2022-11-14T02:11:24;32.40;;;13.60;;
70829;SDS011;58451;51.550;7.208;2022-11-14T02:13:18;30.30;;;12.70;;
70829;SDS011;58451;51.550;7.208;2022-11-14T02:15:09;28.70;;;11.90;;
70829;SDS011;58451;51.550;7.208;2022-11-14T02:16:59;30.20;;;12.10;;
70829;SDS011;58451;51.550;7.208;2022-11-14T02:19:15;30.50;;;12.40;;
70829;SDS011;58451;51.550;7.208;2022-11-14T02:21:06;29.70;;;12.60;;
70829;SDS011;58451;51.550;7.208;2022-11-14T02:22:57;32.10;;;13.80;;
70829;SDS011;58451;51.550;7.208;2022-11-14T02:24:48;35.30;;;14.00;;
70829;SDS011;58451;51.550;7.208;2022-11-14T02:26:40;28.40;;;11.30;;
70829;SDS011;58451;51.550;7.208;2022-11-14T02:28:31;30.00;;;13.40;;
70829;SDS011;58451;51.550;7.208;2022-11-14T02:30:22;32.60;;;13.60;;
70829;SDS011;58451;51.550;7.208;2022-11-14T02:32:12;30.70;;;13.00;;
70829;SDS011;58451;51.550;7.208;2022-11-14T02:34:03;33.20;;;13.20;;
70829;SDS011;58451;51.550;7.208;2022-11-14T02:35:53;33.30;;;13.80;;
70829;SDS011;58451;51.550;7.208;2022-11-14T02:37:43;30.80;;;12.70;;
70829;SDS011;58451;51.550;7.208;2022-11-14T02:39:34;30.80;;;13.30;;
70829;SDS011;58451;51.550;7.208;2022-11-14T02:41:24;31.70;;;13.90;;
70829;SDS011;58451;51.550;7.208;2022-11-14T02:43:25;35.60;;;13.70;;
70829;SDS011;58451;51.550;7.208;2022-11-14T02:45:15;34.30;;;14.00;;
70829;SDS011;58451;51.550;7.208;2022-11-14T02:47:06;34.40;;;14.60;;
70829;SDS011;58451;51.550;7.208;2022-11-14T02:48:57;37.90;;;14.20;;
70829;SDS011;58451;51.550;7.208;2022-11-14T02:50:48;31.20;;;13.40;;
70829;SDS011;58451;51.550;7.208;2022-11-14T02:52:39;31.80;;;13.20;;
70829;SDS011;58451;51.550;7.208;2022-11-14T02:54:30;35.20;;;15.00;;
70829;SDS011;58451;51.550;7.208;2022-11-14T02:56:21;32.20;;;14.10;;
70829;SDS011;58451;51.550;7.208;2022-11-14T02:58:13;34.10;;;15.10;;
70829;SDS011;58451;51.550;7.208;2022-11-14T03:00:04;37.20;;;14.30;;
70829;SDS011;58451;51.550;7.208;2022-11-14T03:02:03;35.00;;;14.40;;
70829;SDS011;58451;51.550;7.208;2022-11-14T03:03:54;38.40;;;14.90;;
70829;SDS011;58451;51.550;7.208;2022-11-14T03:05:44;34.50;;;14.50;;
70829;SDS011;58451;51.550;7.208;2022-11-14T03:07:37;34.40;;;13.80;;
70829;SDS011;58451;51.550;7.208;2022-11-14T03:09:27;34.50;;;13.70;;
70829;SDS011;58451;51.550;7.208;2022-11-14T03:11:18;35.40;;;14.60;;
70829;SDS011;58451;51.550;7.208;2022-11-14T03:13:09;27.90;;;9.30;;
70829;SDS011;58451;51.550;7.208;2022-11-14T03:14:59;31.30;;;12.70;;
70829;SDS011;58451;51.550;7.208;2022-11-14T03:16:49;32.20;;;13.00;;
70829;SDS011;58451;51.550;7.208;2022-11-14T03:18:40;29.80;;;13.40;;
70829;SDS011;58451;51.550;7.208;2022-11-14T03:20:30;34.70;;;14.30;;
70829;SDS011;58451;51.550;7.208;2022-11-14T03:22:21;32.10;;;13.50;;
70829;SDS011;58451;51.550;7.208;2022-11-14T03:24:11;32.30;;;13.60;;
70829;SDS011;58451;51.550;7.208;2022-11-14T03:26:04;33.30;;;12.80;;
70829;SDS011;58451;51.550;7.208;2022-11-14T03:27:56;29.70;;;11.50;;
70829;SDS011;58451;51.550;7.208;2022-11-14T03:29:49;32.10;;;13.20;;
70829;SDS011;58451;51.550;7.208;2022-11-14T03:31:42;29.10;;;11.50;;
70829;SDS011;58451;51.550;7.208;2022-11-14T03:33:33;28.00;;;10.30;;
70829;SDS011;58451;51.550;7.208;2022-11-14T03:35:25;30.60;;;12.00;;
70829;SDS011;58451;51.550;7.208;2022-11-14T03:37:15;25.70;;;11.30;;
70829;SDS011;58451;51.550;7.208;2022-11-14T03:39:05;29.50;;;11.30;;
70829;SDS011;58451;51.550;7.208;2022-11-14T03:40:59;33.10;;;12.40;;
70829;SDS011;58451;51.550;7.208;2022-11-14T03:42:50;30.00;;;11.90;;
70829;SDS011;58451;51.550;7.208;2022-11-14T03:44:40;33.90;;;14.00;;
70829;SDS011;58451;51.550;7.208;2022-11-14T03:46:31;34.60;;;13.90;;
70829;SDS011;58451;51.550;7.208;2022-11-14T03:48:21;29.20;;;12.80;;
70829;SDS011;58451;51.550;7.208;2022-11-14T03:50:12;34.70;;;13.70;;
70829;SDS011;58451;51.550;7.208;2022-11-14T03:52:03;35.30;;;14.50;;
70829;SDS011;58451;51.550;7.208;2022-11-14T03:53:54;40.30;;;15.00;;
70829;SDS011;58451;51.550;7.208;2022-11-14T03:55:44;46.10;;;17.40;;
70829;SDS011;58451;51.550;7.208;2022-11-14T03:57:35;42.10;;;17.20;;
70829;SDS011;58451;51.550;7.208;2022-11-14T03:59:25;45.80;;;17.50;;
70829;SDS011;58451;51.550;7.208;2022-11-14T04:01:16;44.50;;;17.90;;
70829;SDS011;58451;51.550;7.208;2022-11-14T04:03:06;45.20;;;18.30;;
70829;SDS011;58451;51.550;7.208;2022-11-14T04:04:57;41.80;;;17.00;;
70829;SDS011;58451;51.550;7.208;2022-11-14T04:06:48;36.20;;;14.70;;
70829;SDS011;58451;51.550;7.208;2022-11-14T04:08:40;33.10;;;13.80;;
70829;SDS011;58451;51.550;7.208;2022-11-14T04:10:30;31.20;;;12.30;;
70829;SDS011;58451;51.550;7.208;2022-11-14T04:12:21;30.10;;;12.80;;
70829;SDS011;58451;51.550;7.208;2022-11-14T04:14:11;27.10;;;11.40;;
70829;SDS011;58451;51.550;7.208;2022-11-14T04:16:02;25.60;;;10.50;;
70829;SDS011;58451;51.550;7.208;2022-11-14T04:17:55;26.30;;;11.20;;
70829;SDS011;58451;51.550;7.208;2022-11-14T04:19:45;23.40;;;9.70;;
70829;SDS011;58451;51.550;7.208;2022-11-14T04:21:36;25.30;;;9.60;;
70829;SDS011;58451;51.550;7.208;2022-11-14T04:23:26;25.20;;;10.60;;
70829;SDS011;58451;51.550;7.208;2022-11-14T04:25:16;27.40;;;10.80;;
70829;SDS011;58451;51.550;7.208;2022-11-14T04:27:07;28.40;;;10.30;;
70829;SDS011;58451;51.550;7.208;2022-11-14T04:28:58;24.60;;;9.90;;
70829;SDS011;58451;51.550;7.208;2022-11-14T04:30:49;26.80;;;10.30;;
70829;SDS011;58451;51.550;7.208;2022-11-14T04:32:39;27.70;;;10.00;;
70829;SDS011;58451;51.550;7.208;2022-11-14T04:34:30;25.10;;;9.70;;
70829;SDS011;58451;51.550;7.208;2022-11-14T04:36:20;24.30;;;9.60;;
70829;SDS011;58451;51.550;7.208;2022-11-14T04:38:11;24.10;;;10.30;;
70829;SDS011;58451;51.550;7.208;2022-11-14T04:40:01;27.20;;;10.60;;
70829;SDS011;58451;51.550;7.208;2022-11-14T04:41:52;29.60;;;10.50;;
70829;SDS011;58451;51.550;7.208;2022-11-14T04:43:42;24.90;;;10.80;;
70829;SDS011;58451;51.550;7.208;2022-11-14T04:45:39;25.70;;;10.90;;
70829;SDS011;58451;51.550;7.208;2022-11-14T04:47:29;23.80;;;10.70;;
70829;SDS011;58451;51.550;7.208;2022-11-14T04:49:20;26.70;;;11.30;;
70829;SDS011;58451;51.550;7.208;2022-11-14T04:51:10;25.80;;;10.80;;
70829;SDS011;58451;51.550;7.208;2022-11-14T04:53:01;26.00;;;10.70;;
70829;SDS011;58451;51.550;7.208;2022-11-14T04:54:51;31.50;;;11.80;;
70829;SDS011;58451;51.550;7.208;2022-11-14T04:56:41;30.30;;;12.00;;
70829;SDS011;58451;51.550;7.208;2022-11-14T04:58:32;27.70;;;11.00;;
70829;SDS011;58451;51.550;7.208;2022-11-14T05:00:23;30.40;;;11.70;;
70829;SDS011;58451;51.550;7.208;2022-11-14T05:02:14;26.50;;;10.80;;
70829;SDS011;58451;51.550;7.208;2022-11-14T05:04:04;26.90;;;10.70;;
70829;SDS011;58451;51.550;7.208;2022-11-14T05:05:59;29.10;;;10.80;;
70829;SDS011;58451;51.550;7.208;2022-11-14T05:07:50;30.40;;;11.90;;
70829;SDS011;58451;51.550;7.208;2022-11-14T05:09:41;25.80;;;11.40;;
70829;SDS011;58451;51.550;7.208;2022-11-14T05:11:31;28.70;;;11.70;;
70829;SDS011;58451;51.550;7.208;2022-11-14T05:13:22;26.40;;;9.50;;
70829;SDS011;58451;51.550;7.208;2022-11-14T05:15:13;28.80;;;10.90;;
70829;SDS011;58451;51.550;7.208;2022-11-14T05:17:04;29.70;;;11.70;;
70829;SDS011;58451;51.550;7.208;2022-11-14T05:18:54;31.80;;;12.10;;
70829;SDS011;58451;51.550;7.208;2022-11-14T05:20:44;28.40;;;11.70;;
70829;SDS011;58451;51.550;7.208;2022-11-14T05:22:34;27.10;;;10.70;;
70829;SDS011;58451;51.550;7.208;2022-11-14T05:24:25;33.70;;;11.80;;
70829;SDS011;58451;51.550;7.208;2022-11-14T05:26:17;28.10;;;11.80;;
70829;SDS011;58451;51.550;7.208;2022-11-14T05:28:08;34.20;;;13.40;;
70829;SDS011;58451;51.550;7.208;2022-11-14T05:29:58;30.10;;;12.40;;
70829;SDS011;58451;51.550;7.208;2022-11-14T05:31:49;30.90;;;12.70;;
70829;SDS011;58451;51.550;7.208;2022-11-14T05:33:41;33.90;;;12.70;;
70829;SDS011;58451;51.550;7.208;2022-11-14T05:35:31;33.30;;;11.20;;
70829;SDS011;58451;51.550;7.208;2022-11-14T05:37:21;31.80;;;12.00;;
70829;SDS011;58451;51.550;7.208;2022-11-14T05:39:12;31.50;;;12.10;;
70829;SDS011;58451;51.550;7.208;2022-11-14T05:41:07;29.40;;;11.40;;
70829;SDS011;58451;51.550;7.208;2022-11-14T05:43:00;30.00;;;12.50;;
70829;SDS011;58451;51.550;7.208;2022-11-14T05:44:52;29.00;;;12.00;;
70829;SDS011;58451;51.550;7.208;2022-11-14T05:46:42;28.00;;;12.50;;
70829;SDS011;58451;51.550;7.208;2022-11-14T05:48:33;31.00;;;12.30;;
70829;SDS011;58451;51.550;7.208;2022-11-14T05:50:23;31.00;;;13.10;;
70829;SDS011;58451;51.550;7.208;2022-11-14T05:52:14;31.20;;;13.40;;
70829;SDS011;58451;51.550;7.208;2022-11-14T05:54:08;33.10;;;13.10;;
70829;SDS011;58451;51.550;7.208;2022-11-14T05:56:04;35.40;;;12.70;;
70829;SDS011;58451;51.550;7.208;2022-11-14T05:57:59;29.80;;;12.50;;
70829;SDS011;58451;51.550;7.208;2022-11-14T05:59:56;37.50;;;14.80;;
70829;SDS011;58451;51.550;7.208;2022-11-14T06:01:46;32.60;;;13.80;;
70829;SDS011;58451;51.550;7.208;2022-11-14T06:03:42;32.60;;;14.20;;
70829;SDS011;58451;51.550;7.208;2022-11-14T06:05:34;33.20;;;13.20;;
70829;SDS011;58451;51.550;7.208;2022-11-14T06:07:25;31.90;;;14.40;;
70829;SDS011;58451;51.550;7.208;2022-11-14T06:09:16;36.30;;;13.90;;
70829;SDS011;58451;51.550;7.208;2022-11-14T06:11:10;31.90;;;12.80;;
70829;SDS011;58451;51.550;7.208;2022-11-14T06:13:03;35.90;;;13.30;;
70829;SDS011;58451;51.550;7.208;2022-11-14T06:14:53;33.90;;;14.00;;
70829;SDS011;58451;51.550;7.208;2022-11-14T06:16:45;33.20;;;12.80;;
70829;SDS011;58451;51.550;7.208;2022-11-14T06:18:37;40.80;;;13.70;;
70829;SDS011;58451;51.550;7.208;2022-11-14T06:20:28;34.90;;;14.20;;
70829;SDS011;58451;51.550;7.208;2022-11-14T06:22:19;37.50;;;14.50;;
70829;SDS011;58451;51.550;7.208;2022-11-14T06:24:09;33.20;;;13.80;;
70829;SDS011;58451;51.550;7.208;2022-11-14T06:26:01;37.10;;;14.50;;
70829;SDS011;58451;51.550;7.208;2022-11-14T06:27:54;34.30;;;14.30;;
70829;SDS011;58451;51.550;7.208;2022-11-14T06:29:44;34.80;;;14.50;;
70829;SDS011;58451;51.550;7.208;2022-11-14T06:31:35;35.10;;;13.30;;
70829;SDS011;58451;51.550;7.208;2022-11-14T06:33:27;38.10;;;14.30;;
70829;SDS011;58451;51.550;7.208;2022-11-14T06:35:18;32.10;;;13.40;;
70829;SDS011;58451;51.550;7.208;2022-11-14T06:37:09;35.20;;;13.80;;
70829;SDS011;58451;51.550;7.208;2022-11-14T06:38:59;33.30;;;14.10;;
70829;SDS011;58451;51.550;7.208;2022-11-14T06:40:50;35.00;;;15.00;;
70829;SDS011;58451;51.550;7.208;2022-11-14T06:42:40;36.30;;;14.40;;
70829;SDS011;58451;51.550;7.208;2022-11-14T06:44:31;35.90;;;14.10;;
70829;SDS011;58451;51.550;7.208;2022-11-14T06:46:21;33.10;;;13.60;;
70829;SDS011;58451;51.550;7.208;2022-11-14T06:48:12;28.40;;;11.70;;
70829;SDS011;58451;51.550;7.208;2022-11-14T06:50:03;30.40;;;11.70;;
70829;SDS011;58451;51.550;7.208;2022-11-14T06:51:54;28.80;;;12.20;;
70829;SDS011;58451;51.550;7.208;2022-11-14T06:53:45;27.60;;;11.10;;
70829;SDS011;58451;51.550;7.208;2022-11-14T06:55:35;30.30;;;12.60;;
70829;SDS011;58451;51.550;7.208;2022-11-14T06:57:26;28.90;;;12.80;;
70829;SDS011;58451;51.550;7.208;2022-11-14T06:59:16;33.20;;;13.60;;
70829;SDS011;58451;51.550;7.208;2022-11-14T07:01:10;33.00;;;13.40;;
70829;SDS011;58451;51.550;7.208;2022-11-14T07:03:05;37.80;;;13.50;;
70829;SDS011;58451;51.550;7.208;2022-11-14T07:04:55;36.00;;;14.60;;
70829;SDS011;58451;51.550;7.208;2022-11-14T07:06:46;31.00;;;13.00;;
70829;SDS011;58451;51.550;7.208;2022-11-14T07:08:36;29.90;;;11.40;;
70829;SDS011;58451;51.550;7.208;2022-11-14T07:10:28;35.30;;;13.20;;
70829;SDS011;58451;51.550;7.208;2022-11-14T07:12:20;32.30;;;14.00;;
70829;SDS011;58451;51.550;7.208;2022-11-14T07:14:11;27.00;;;11.80;;
70829;SDS011;58451;51.550;7.208;2022-11-14T07:16:02;28.60;;;12.10;;
70829;SDS011;58451;51.550;7.208;2022-11-14T07:17:53;32.20;;;14.20;;
70829;SDS011;58451;51.550;7.208;2022-11-14T07:19:43;32.60;;;13.30;;
70829;SDS011;58451;51.550;7.208;2022-11-14T07:21:35;33.80;;;14.30;;
70829;SDS011;58451;51.550;7.208;2022-11-14T07:23:27;38.90;;;15.50;;
70829;SDS011;58451;51.550;7.208;2022-11-14T07:25:20;29.90;;;13.70;;
70829;SDS011;58451;51.550;7.208;2022-11-14T07:27:13;29.50;;;12.80;;
70829;SDS011;58451;51.550;7.208;2022-11-14T07:29:06;32.30;;;13.90;;
70829;SDS011;58451;51.550;7.208;2022-11-14T07:30:56;28.00;;;13.20;;
70829;SDS011;58451;51.550;7.208;2022-11-14T07:32:54;29.90;;;12.30;;
70829;SDS011;58451;51.550;7.208;2022-11-14T07:34:45;33.90;;;15.10;;
70829;SDS011;58451;51.550;7.208;2022-11-14T07:36:36;30.00;;;13.70;;
70829;SDS011;58451;51.550;7.208;2022-11-14T07:38:26;28.60;;;14.10;;
70829;SDS011;58451;51.550;7.208;2022-11-14T07:40:17;26.60;;;11.20;;
70829;SDS011;58451;51.550;7.208;2022-11-14T07:42:08;28.70;;;13.40;;
70829;SDS011;58451;51.550;7.208;2022-11-14T07:43:58;33.80;;;14.80;;
70829;SDS011;58451;51.550;7.208;2022-11-14T07:45:49;33.20;;;14.60;;
70829;SDS011;58451;51.550;7.208;2022-11-14T07:47:39;26.80;;;10.90;;
70829;SDS011;58451;51.550;7.208;2022-11-14T07:49:30;28.00;;;13.70;;
70829;SDS011;58451;51.550;7.208;2022-11-14T07:51:20;25.00;;;11.90;;
70829;SDS011;58451;51.550;7.208;2022-11-14T07:53:11;32.00;;;14.60;;
70829;SDS011;58451;51.550;7.208;2022-11-14T07:55:01;28.20;;;13.00;;
70829;SDS011;58451;51.550;7.208;2022-11-14T07:56:52;27.50;;;12.70;;
70829;SDS011;58451;51.550;7.208;2022-11-14T07:58:42;28.80;;;12.70;;
70829;SDS011;58451;51.550;7.208;2022-11-14T08:00:33;33.30;;;14.10;;
70829;SDS011;58451;51.550;7.208;2022-11-14T08:02:24;20.60;;;9.20;;
70829;SDS011;58451;51.550;7.208;2022-11-14T08:04:15;27.20;;;11.40;;
70829;SDS011;58451;51.550;7.208;2022-11-14T08:06:10;27.70;;;12.70;;
70829;SDS011;58451;51.550;7.208;2022-11-14T08:08:03;24.50;;;11.90;;
70829;SDS011;58451;51.550;7.208;2022-11-14T08:09:54;26.90;;;12.20;;
70829;SDS011;58451;51.550;7.208;2022-11-14T08:11:45;27.80;;;12.30;;
70829;SDS011;58451;51.550;7.208;2022-11-14T08:13:39;25.50;;;11.10;;
70829;SDS011;58451;51.550;7.208;2022-11-14T08:15:29;25.10;;;12.00;;
70829;SDS011;58451;51.550;7.208;2022-11-14T08:17:21;23.00;;;11.40;;
70829;SDS011;58451;51.550;7.208;2022-11-14T08:19:14;23.40;;;11.40;;
70829;SDS011;58451;51.550;7.208;2022-11-14T08:21:06;22.90;;;11.00;;
70829;SDS011;58451;51.550;7.208;2022-11-14T08:23:05;25.40;;;11.40;;
70829;SDS011;58451;51.550;7.208;2022-11-14T08:24:58;24.50;;;11.60;;
70829;SDS011;58451;51.550;7.208;2022-11-14T08:26:48;25.00;;;12.20;;
70829;SDS011;58451;51.550;7.208;2022-11-14T08:28:39;24.60;;;10.20;;
70829;SDS011;58451;51.550;7.208;2022-11-14T08:30:30;24.70;;;11.30;;
70829;SDS011;58451;51.550;7.208;2022-11-14T08:32:20;24.70;;;10.60;;
70829;SDS011;58451;51.550;7.208;2022-11-14T08:34:11;22.20;;;9.90;;
70829;SDS011;58451;51.550;7.208;2022-11-14T08:36:02;25.70;;;9.90;;
70829;SDS011;58451;51.550;7.208;2022-11-14T08:37:54;21.20;;;9.70;;
70829;SDS011;58451;51.550;7.208;2022-11-14T08:39:44;26.60;;;10.70;;
70829;SDS011;58451;51.550;7.208;2022-11-14T08:41:35;23.70;;;10.20;;
70829;SDS011;58451;51.550;7.208;2022-11-14T08:43:26;23.80;;;10.50;;
70829;SDS011;58451;51.550;7.208;2022-11-14T08:45:16;24.00;;;10.70;;
70829;SDS011;58451;51.550;7.208;2022-11-14T08:47:07;25.70;;;11.30;;
70829;SDS011;58451;51.550;7.208;2022-11-14T08:48:58;26.60;;;11.40;;
70829;SDS011;58451;51.550;7.208;2022-11-14T08:50:48;23.80;;;10.90;;
70829;SDS011;58451;51.550;7.208;2022-11-14T08:52:38;22.00;;;10.80;;
70829;SDS011;58451;51.550;7.208;2022-11-14T08:54:29;23.80;;;11.40;;
70829;SDS011;58451;51.550;7.208;2022-11-14T08:56:20;26.20;;;11.70;;
70829;SDS011;58451;51.550;7.208;2022-11-14T08:58:13;26.20;;;12.20;;
70829;SDS011;58451;51.550;7.208;2022-11-14T09:00:03;26.90;;;12.40;;
70829;SDS011;58451;51.550;7.208;2022-11-14T09:01:56;27.10;;;12.30;;
70829;SDS011;58451;51.550;7.208;2022-11-14T09:03:48;23.40;;;11.70;;
70829;SDS011;58451;51.550;7.208;2022-11-14T09:05:50;24.90;;;12.20;;
70829;SDS011;58451;51.550;7.208;2022-11-14T09:07:42;22.90;;;11.70;;
70829;SDS011;58451;51.550;7.208;2022-11-14T09:09:32;26.50;;;12.30;;
70829;SDS011;58451;51.550;7.208;2022-11-14T09:11:22;27.30;;;12.30;;
70829;SDS011;58451;51.550;7.208;2022-11-14T09:13:13;23.70;;;11.50;;
70829;SDS011;58451;51.550;7.208;2022-11-14T09:15:03;24.00;;;12.10;;
70829;SDS011;58451;51.550;7.208;2022-11-14T09:16:54;23.60;;;11.30;;
70829;SDS011;58451;51.550;7.208;2022-11-14T09:18:44;25.80;;;11.90;;
70829;SDS011;58451;51.550;7.208;2022-11-14T09:20:34;24.80;;;12.30;;
70829;SDS011;58451;51.550;7.208;2022-11-14T09:22:30;21.80;;;11.80;;
70829;SDS011;58451;51.550;7.208;2022-11-14T09:24:20;22.00;;;10.80;;
70829;SDS011;58451;51.550;7.208;2022-11-14T09:26:12;25.20;;;10.30;;
70829;SDS011;58451;51.550;7.208;2022-11-14T09:28:07;19.70;;;9.30;;
70829;SDS011;58451;51.550;7.208;2022-11-14T09:29:59;24.20;;;10.20;;
70829;SDS011;58451;51.550;7.208;2022-11-14T09:31:52;18.60;;;8.70;;
70829;SDS011;58451;51.550;7.208;2022-11-14T09:33:44;20.10;;;9.10;;
70829;SDS011;58451;51.550;7.208;2022-11-14T09:35:35;15.90;;;6.30;;
70829;SDS011;58451;51.550;7.208;2022-11-14T09:37:27;17.70;;;6.70;;
70829;SDS011;58451;51.550;7.208;2022-11-14T09:39:19;14.20;;;6.20;;
70829;SDS011;58451;51.550;7.208;2022-11-14T09:45:41;17.00;;;7.60;;
70829;SDS011;58451;51.550;7.208;2022-11-14T09:47:47;15.90;;;7.00;;
70829;SDS011;58451;51.550;7.208;2022-11-14T09:49:44;16.20;;;7.40;;
70829;SDS011;58451;51.550;7.208;2022-11-14T09:51:56;15.80;;;7.00;;
70829;SDS011;58451;51.550;7.208;2022-11-14T09:54:19;15.50;;;6.60;;
70829;SDS011;58451;51.550;7.208;2022-11-14T09:56:19;19.10;;;7.70;;
70829;SDS011;58451;51.550;7.208;2022-11-14T09:58:19;16.70;;;7.50;;
70829;SDS011;58451;51.550;7.208;2022-11-14T10:00:22;20.10;;;8.50;;
70829;SDS011;58451;51.550;7.208;2022-11-14T10:06:40;18.40;;;8.20;;
70829;SDS011;58451;51.550;7.208;2022-11-14T10:12:03;19.60;;;9.10;;
70829;SDS011;58451;51.550;7.208;2022-11-14T10:14:27;17.60;;;6.70;;
70829;SDS011;58451;51.550;7.208;2022-11-14T10:16:57;17.90;;;7.60;;
70829;SDS011;58451;51.550;7.208;2022-11-14T10:19:33;16.00;;;6.70;;
70829;SDS011;58451;51.550;7.208;2022-11-14T10:21:57;12.50;;;5.40;;
70829;SDS011;58451;51.550;7.208;2022-11-14T10:28:38;20.80;;;9.10;;
70829;SDS011;58451;51.550;7.208;2022-11-14T10:30:50;16.90;;;7.50;;
70829;SDS011;58451;51.550;7.208;2022-11-14T10:35:59;19.40;;;8.00;;
70829;SDS011;58451;51.550;7.208;2022-11-14T10:40:25;17.30;;;7.80;;
70829;SDS011;58451;51.550;7.208;2022-11-14T10:42:31;15.70;;;6.80;;
70829;SDS011;58451;51.550;7.208;2022-11-14T10:44:30;18.10;;;7.80;;
70829;SDS011;58451;51.550;7.208;2022-11-14T10:46:36;17.90;;;8.70;;
70829;SDS011;58451;51.550;7.208;2022-11-14T10:48:59;14.60;;;6.20;;
70829;SDS011;58451;51.550;7.208;2022-11-14T10:53:26;18.10;;;7.20;;
70829;SDS011;58451;51.550;7.208;2022-11-14T10:55:28;15.40;;;6.50;;
70829;SDS011;58451;51.550;7.208;2022-11-14T10:57:38;17.90;;;7.50;;
70829;SDS011;58451;51.550;7.208;2022-11-14T10:59:34;17.70;;;7.10;;
70829;SDS011;58451;51.550;7.208;2022-11-14T11:03:42;17.00;;;7.00;;
70829;SDS011;58451;51.550;7.208;2022-11-14T11:05:50;15.70;;;6.90;;
70829;SDS011;58451;51.550;7.208;2022-11-14T11:07:46;14.60;;;6.20;;
70829;SDS011;58451;51.550;7.208;2022-11-14T11:10:21;15.30;;;6.30;;
70829;SDS011;58451;51.550;7.208;2022-11-14T11:12:43;15.50;;;6.40;;
70829;SDS011;58451;51.550;7.208;2022-11-14T11:14:40;14.40;;;6.30;;
70829;SDS011;58451;51.550;7.208;2022-11-14T11:16:32;17.50;;;8.10;;
70829;SDS011;58451;51.550;7.208;2022-11-14T11:18:32;18.10;;;8.10;;
70829;SDS011;58451;51.550;7.208;2022-11-14T11:22:34;17.50;;;8.30;;
70829;SDS011;58451;51.550;7.208;2022-11-14T11:24:36;13.50;;;6.00;;
70829;SDS011;58451;51.550;7.208;2022-11-14T11:26:29;15.30;;;6.70;;
70829;SDS011;58451;51.550;7.208;2022-11-14T11:28:21;17.00;;;7.90;;
70829;SDS011;58451;51.550;7.208;2022-11-14T11:30:20;15.40;;;7.20;;
70829;SDS011;58451;51.550;7.208;2022-11-14T11:32:25;15.10;;;6.80;;
70829;SDS011;58451;51.550;7.208;2022-11-14T11:34:22;17.50;;;7.20;;